KHUL/HUL METAR and TAF weather

Enter ICAO airport designator
Station Type Date Time Source
KHUL METAR 2019/12/14 19:34 UTC NOAA

KHUL 141934Z AUTO 10013G24KT 3SM RA BR SCT009 BKN022 OVC036 04/03 A2951 RMK AO2 P0007 T00440028


Station Type Date Time Source
KHUL Decoded METAR 2019/12/14 19:34 UTC NOAA

HOULTON INT'L AIRPORT, ME, United States (KHUL) 46-07N 067-48W 150M
Dec 14, 2019 - 02:34 PM EST / 2019.12.14 1934 UTC
Wind: from the E (100 degrees) at 15 MPH (13 KT) gusting to 28 MPH (24 KT):0
Visibility: 3 mile(s):0
Sky conditions: overcast
Weather: rain; mist
Precipitation last hour: 0.07 inches
Temperature: 39.9 F (4.4 C)
Dew Point: 37.0 F (2.8 C)
Relative Humidity: 89%
Pressure (altimeter): 29.51 in. Hg (999 hPa)
ob: KHUL 141934Z AUTO 10013G24KT 3SM RA BR SCT009 BKN022 OVC036 04/03 A2951 RMK AO2 P0007 T00440028
cycle: 19

Station Type Date Time Source
KHUL TAF 2019/12/14 18:22 UTC NOAA

TAF KHUL 141720Z 1418/1518 09009KT 4SM -RA BR SCT009 OVC015 WS020/12055KT
FM142300 12008KT 2SM RA OVC003 WS020/17040KT
FM150700 17011G20KT P6SM VCSH OVC003 WS020/20040KT
FM151000 19012G21KT 5SM -SHRA OVC006 WS020/21045KT
FM151500 23015G25KT P6SM OVC030

Example: see airport list